createdAt,value
2018-12-16T00:02:26.587Z,49.18
2018-12-16T00:04:58.022Z,49.22
2018-12-16T00:07:27.169Z,49.05
2018-12-16T00:12:31.980Z,49.85
2018-12-16T00:15:29.374Z,49.90
2018-12-16T00:17:58.244Z,49.22
2018-12-16T00:20:33.530Z,48.95
2018-12-16T00:23:03.220Z,49.00
2018-12-16T00:25:38.478Z,48.65
2018-12-16T00:28:18.586Z,49.43
2018-12-16T00:30:52.122Z,48.67
2018-12-16T00:33:22.052Z,48.71
2018-12-16T00:35:53.948Z,48.31
2018-12-16T00:38:26.461Z,48.95
2018-12-16T00:40:59.357Z,49.49
2018-12-16T00:43:36.446Z,49.02
2018-12-16T00:46:10.628Z,49.08
2018-12-16T00:48:45.958Z,48.91
2018-12-16T00:51:14.565Z,49.06
2018-12-16T00:53:44.124Z,49.04
2018-12-16T00:56:20.757Z,49.01
2018-12-16T00:59:04.144Z,48.53
2018-12-16T01:01:36.294Z,48.72
2018-12-16T01:04:05.412Z,49.02
2018-12-16T01:06:33.685Z,48.96
2018-12-16T01:09:02.620Z,49.35
2018-12-16T01:14:13.021Z,49.26
2018-12-16T01:16:41.464Z,49.00
2018-12-16T01:19:13.409Z,49.00
2018-12-16T01:21:43.236Z,49.01
2018-12-16T01:24:14.010Z,49.13
2018-12-16T01:26:43.777Z,49.16
2018-12-16T01:29:12.816Z,49.11
2018-12-16T01:31:42.282Z,49.12
2018-12-16T01:34:11.742Z,48.99
2018-12-16T01:36:41.078Z,48.82
2018-12-16T01:39:10.625Z,48.89
2018-12-16T01:41:40.015Z,48.56
2018-12-16T01:44:10.514Z,49.05
2018-12-16T01:46:41.896Z,49.16
2018-12-16T01:49:10.746Z,49.31
2018-12-16T01:51:40.735Z,49.42
2018-12-16T01:54:09.359Z,49.85
2018-12-16T01:56:38.178Z,48.87
2018-12-16T01:59:09.811Z,49.21
2018-12-16T02:01:45.832Z,49.70
2018-12-16T02:04:14.153Z,50.19
2018-12-16T02:06:43.814Z,50.49
2018-12-16T02:09:12.666Z,51.70
2018-12-16T02:11:41.143Z,54.21
2018-12-16T02:14:16.594Z,55.07
2018-12-16T02:16:47.952Z,56.33
2018-12-16T02:19:16.481Z,57.08
2018-12-16T02:21:46.486Z,57.50
2018-12-16T02:24:15.659Z,58.33
2018-12-16T02:26:47.301Z,59.54
2018-12-16T02:29:16.429Z,59.48
2018-12-16T02:31:46.489Z,60.91
2018-12-16T02:34:15.773Z,61.87
2018-12-16T02:36:46.069Z,62.07
2018-12-16T02:39:15.241Z,62.99
2018-12-16T02:41:47.299Z,63.06
2018-12-16T02:44:16.024Z,62.58
2018-12-16T02:46:47.114Z,61.39
2018-12-16T02:49:16.095Z,62.19
2018-12-16T02:51:48.068Z,62.23
2018-12-16T02:54:16.878Z,61.36
2018-12-16T02:56:46.129Z,61.29
2018-12-16T02:59:15.807Z,60.95
2018-12-16T03:01:51.989Z,61.11
2018-12-16T03:04:22.932Z,60.60
2018-12-16T03:06:51.559Z,60.56
2018-12-16T03:09:21.814Z,61.15
2018-12-16T03:11:52.489Z,61.03
2018-12-16T03:14:21.976Z,61.17
2018-12-16T03:16:51.663Z,60.71
2018-12-16T03:19:20.634Z,61.18
2018-12-16T03:21:49.374Z,61.57
2018-12-16T03:24:19.696Z,61.18
2018-12-16T03:26:52.043Z,62.19
2018-12-16T03:29:23.483Z,61.92
2018-12-16T03:31:54.737Z,63.92
2018-12-16T03:34:24.587Z,63.29
2018-12-16T03:36:53.904Z,63.29
2018-12-16T03:39:22.094Z,66.10
2018-12-16T03:41:51.284Z,64.69
2018-12-16T03:44:20.470Z,64.34
2018-12-16T03:46:49.208Z,64.71
2018-12-16T03:49:18.087Z,65.03
2018-12-16T03:51:47.156Z,64.79
2018-12-16T03:54:15.743Z,64.40
2018-12-16T03:56:44.404Z,64.36
2018-12-16T03:59:16.859Z,65.01
2018-12-16T04:01:53.979Z,64.58
2018-12-16T04:04:24.008Z,63.67
2018-12-16T04:06:54.173Z,64.01
2018-12-16T04:09:26.811Z,64.13
2018-12-16T04:12:00.908Z,64.77
2018-12-16T04:14:31.243Z,64.39
2018-12-16T04:17:00.653Z,65.23
2018-12-16T04:19:29.878Z,65.98
2018-12-16T04:22:00.504Z,66.18
2018-12-16T04:24:29.656Z,66.42
2018-12-16T04:26:59.248Z,66.83
2018-12-16T04:29:28.275Z,66.66
2018-12-16T04:31:58.165Z,67.53
2018-12-16T04:34:27.309Z,68.14
2018-12-16T04:36:56.312Z,68.01
2018-12-16T04:39:24.822Z,67.03
2018-12-16T04:41:55.859Z,67.20
2018-12-16T04:44:24.909Z,66.75
2018-12-16T04:46:53.853Z,67.28
2018-12-16T04:49:23.503Z,66.64
2018-12-16T04:51:51.684Z,66.69
2018-12-16T04:54:20.995Z,67.19
2018-12-16T04:56:49.513Z,66.99
2018-12-16T04:59:19.029Z,66.94
2018-12-16T05:01:48.324Z,67.41
2018-12-16T05:04:17.407Z,67.68
2018-12-16T05:06:45.905Z,67.14
2018-12-16T05:09:14.165Z,67.59
2018-12-16T05:11:43.316Z,67.28
2018-12-16T05:14:11.780Z,66.85
2018-12-16T05:16:40.294Z,67.05
2018-12-16T05:19:08.947Z,67.64
2018-12-16T05:21:37.884Z,66.84
2018-12-16T05:24:08.708Z,67.62
2018-12-16T05:26:44.385Z,66.74
2018-12-16T05:29:13.549Z,66.76
2018-12-16T05:31:44.641Z,66.49
2018-12-16T05:34:14.582Z,66.49
2018-12-16T05:36:46.245Z,65.99
2018-12-16T05:39:16.639Z,66.22
2018-12-16T05:41:46.323Z,65.06
2018-12-16T05:44:22.818Z,64.80
2018-12-16T05:46:53.296Z,64.25
2018-12-16T05:50:26.462Z,64.59
2018-12-16T05:52:55.341Z,64.24
2018-12-16T05:55:24.389Z,64.82
2018-12-16T05:57:53.786Z,64.61
2018-12-16T06:00:22.287Z,64.64
2018-12-16T06:02:50.979Z,64.92
2018-12-16T06:05:20.032Z,65.19
2018-12-16T06:07:52.379Z,65.08
2018-12-16T06:10:22.110Z,65.04
2018-12-16T06:12:52.449Z,64.65
2018-12-16T06:15:21.259Z,64.16
2018-12-16T06:17:50.309Z,64.22
2018-12-16T06:20:18.610Z,63.85
2018-12-16T06:22:46.634Z,63.42
2018-12-16T06:25:15.302Z,63.35
2018-12-16T06:27:43.684Z,63.90
2018-12-16T06:31:36.929Z,63.46
2018-12-16T06:34:05.421Z,63.78
2018-12-16T06:36:34.006Z,63.23
2018-12-16T06:39:02.693Z,63.13
2018-12-16T06:41:35.513Z,63.05
2018-12-16T06:44:04.609Z,62.84
2018-12-16T06:46:33.664Z,62.78
2018-12-16T06:49:06.225Z,63.09
2018-12-16T06:51:34.605Z,62.69
2018-12-16T06:54:02.948Z,63.27
2018-12-16T06:56:32.007Z,62.78
2018-12-16T06:59:00.796Z,63.82
2018-12-16T07:01:32.195Z,62.67
2018-12-16T07:04:00.957Z,63.23
2018-12-16T07:06:29.673Z,62.77
2018-12-16T07:08:58.703Z,62.87
2018-12-16T07:11:27.091Z,62.21
2018-12-16T07:13:55.484Z,61.64
2018-12-16T07:16:25.756Z,61.86
2018-12-16T07:18:54.688Z,61.71
2018-12-16T07:21:27.876Z,61.29
2018-12-16T07:23:58.147Z,62.09
2018-12-16T07:26:26.777Z,61.99
2018-12-16T07:28:58.793Z,62.11
2018-12-16T07:31:31.860Z,61.96
2018-12-16T07:34:06.424Z,61.35
2018-12-16T07:36:52.188Z,61.69
2018-12-16T07:39:23.390Z,61.48
2018-12-16T07:41:52.574Z,61.10
2018-12-16T07:44:25.606Z,61.16
2018-12-16T07:46:56.697Z,60.80
2018-12-16T07:49:31.542Z,61.41
2018-12-16T07:52:04.411Z,61.44
2018-12-16T07:54:33.346Z,61.18
2018-12-16T07:57:03.541Z,61.04
2018-12-16T07:59:36.232Z,61.31
2018-12-16T08:02:05.226Z,62.35
2018-12-16T08:04:39.331Z,62.02
2018-12-16T08:07:08.696Z,61.21
2018-12-16T08:09:37.894Z,61.56
2018-12-16T08:12:09.000Z,60.87
2018-12-16T08:14:39.866Z,61.05
2018-12-16T08:17:08.878Z,61.10
2018-12-16T08:19:37.042Z,61.29
2018-12-16T08:22:05.249Z,60.68
2018-12-16T08:24:37.840Z,61.14
2018-12-16T08:27:07.122Z,60.59
2018-12-16T08:29:35.510Z,60.23
2018-12-16T08:32:17.407Z,60.68
2018-12-16T08:34:50.411Z,60.39
2018-12-16T08:37:26.998Z,59.98
2018-12-16T08:39:58.844Z,60.24
2018-12-16T08:42:30.514Z,60.36
2018-12-16T08:45:00.297Z,60.04
2018-12-16T08:47:33.099Z,60.19
2018-12-16T08:50:00.100Z,61.14
2018-12-16T08:52:29.023Z,60.86
2018-12-16T08:54:57.315Z,61.34
2018-12-16T08:57:28.350Z,61.87
2018-12-16T08:59:57.069Z,61.46
2018-12-16T09:02:25.666Z,61.79
2018-12-16T09:04:54.756Z,62.02
2018-12-16T09:07:25.444Z,61.26
2018-12-16T09:09:55.502Z,62.14
2018-12-16T09:12:23.832Z,62.39
2018-12-16T09:14:52.041Z,61.91
2018-12-16T09:17:21.494Z,62.18
2018-12-16T09:19:50.803Z,62.21
2018-12-16T09:22:21.336Z,62.22
2018-12-16T09:24:49.883Z,62.14
2018-12-16T09:27:18.075Z,62.83
2018-12-16T09:29:46.552Z,62.10
2018-12-16T09:32:16.733Z,62.93
2018-12-16T09:34:45.865Z,62.29
2018-12-16T09:37:14.057Z,62.27
2018-12-16T09:39:43.597Z,62.90
2018-12-16T09:45:08.228Z,62.09
2018-12-16T09:47:37.835Z,62.02
2018-12-16T09:50:07.787Z,63.23
2018-12-16T09:52:37.183Z,62.54
2018-12-16T09:55:06.517Z,62.99
2018-12-16T09:57:35.906Z,62.69
2018-12-16T10:00:07.008Z,64.36
2018-12-16T10:02:47.449Z,64.35
2018-12-16T10:05:16.761Z,63.48
2018-12-16T10:07:48.286Z,63.34
2018-12-16T10:10:17.696Z,63.50
2018-12-16T10:12:51.122Z,62.56
2018-12-16T10:15:26.198Z,62.50
2018-12-16T10:17:54.721Z,63.30
2018-12-16T10:20:26.761Z,62.25
2018-12-16T10:22:56.986Z,62.49
2018-12-16T10:28:33.613Z,62.93
2018-12-16T10:31:06.798Z,64.02
2018-12-16T10:33:36.236Z,63.10
2018-12-16T10:38:26.127Z,62.02
2018-12-16T10:40:57.932Z,62.77
2018-12-16T10:43:31.185Z,62.51
2018-12-16T10:46:02.296Z,62.29
2018-12-16T10:48:33.475Z,62.31
2018-12-16T10:51:10.817Z,62.72
2018-12-16T10:53:48.671Z,61.80
2018-12-16T10:56:19.154Z,62.36
2018-12-16T10:58:49.204Z,62.80
2018-12-16T11:01:23.823Z,63.33
2018-12-16T11:03:55.704Z,62.31
2018-12-16T11:06:30.547Z,61.98
2018-12-16T11:09:05.833Z,61.40
2018-12-16T11:11:35.006Z,62.74
2018-12-16T11:14:07.227Z,62.28
2018-12-16T11:16:53.480Z,62.41
2018-12-16T11:19:24.776Z,62.17
2018-12-16T11:21:54.977Z,62.43
2018-12-16T11:24:24.924Z,62.25
2018-12-16T11:27:00.503Z,63.06
2018-12-16T11:29:32.524Z,62.78
2018-12-16T11:32:24.313Z,63.91
2018-12-16T11:34:55.956Z,62.75
2018-12-16T11:37:25.515Z,62.88
2018-12-16T11:39:56.246Z,63.13
2018-12-16T11:42:31.528Z,62.81
2018-12-16T11:45:05.927Z,62.41
2018-12-16T11:47:46.906Z,63.31
2018-12-16T11:50:18.677Z,63.73
2018-12-16T11:52:54.175Z,63.75
2018-12-16T11:55:34.201Z,63.39
2018-12-16T11:58:06.253Z,65.02
2018-12-16T12:00:40.696Z,65.26
2018-12-16T12:03:13.224Z,65.03
2018-12-16T12:05:45.949Z,65.18
2018-12-16T12:08:15.744Z,64.01
2018-12-16T12:10:50.777Z,63.75
2018-12-16T12:16:21.174Z,63.37
2018-12-16T12:22:39.631Z,63.74
2018-12-16T12:25:19.665Z,64.41
2018-12-16T12:27:52.950Z,64.79
2018-12-16T12:30:30.896Z,63.92
2018-12-16T12:32:59.919Z,63.66
2018-12-16T12:35:28.427Z,63.71
2018-12-16T12:37:56.867Z,64.23
2018-12-16T12:40:27.367Z,63.15
2018-12-16T12:42:56.514Z,63.28
2018-12-16T12:45:25.289Z,63.42
2018-12-16T12:47:59.446Z,63.33
2018-12-16T12:50:29.450Z,62.39
2018-12-16T12:52:58.684Z,63.50
2018-12-16T12:55:29.768Z,63.72
2018-12-16T12:57:57.806Z,63.27
2018-12-16T13:00:28.347Z,62.82
2018-12-16T13:02:57.412Z,64.05
2018-12-16T13:05:27.238Z,65.91
2018-12-16T13:07:59.127Z,65.00
2018-12-16T13:10:27.804Z,64.63
2018-12-16T13:13:03.348Z,64.83
2018-12-16T13:15:37.721Z,64.09
2018-12-16T13:18:08.464Z,63.37
2018-12-16T13:20:40.436Z,63.21
2018-12-16T13:23:09.597Z,63.52
2018-12-16T13:25:44.802Z,62.92
2018-12-16T13:28:16.519Z,63.01
2018-12-16T13:30:47.490Z,62.48
2018-12-16T13:33:17.576Z,63.37
2018-12-16T13:35:46.704Z,63.35
2018-12-16T13:38:17.226Z,63.51
2018-12-16T13:40:47.729Z,63.98
2018-12-16T13:46:08.017Z,62.58
2018-12-16T13:48:51.976Z,63.18
2018-12-16T13:51:24.609Z,63.15
2018-12-16T13:53:53.878Z,63.79
2018-12-16T13:56:27.743Z,64.00
2018-12-16T13:59:01.714Z,63.82
2018-12-16T14:01:42.362Z,63.97
2018-12-16T14:04:41.163Z,64.08
2018-12-16T14:07:12.662Z,63.92
2018-12-16T14:09:51.607Z,63.13
2018-12-16T14:12:28.346Z,63.64
2018-12-16T14:15:16.983Z,63.96
2018-12-16T14:17:56.376Z,63.87
2018-12-16T14:20:29.391Z,64.75
2018-12-16T14:23:01.349Z,63.95
2018-12-16T14:25:32.927Z,64.12
2018-12-16T14:28:02.546Z,63.97
2018-12-16T14:30:32.936Z,64.18
2018-12-16T14:33:07.613Z,65.41
2018-12-16T14:35:40.973Z,65.60
2018-12-16T14:38:09.897Z,65.87
2018-12-16T14:40:39.485Z,65.43
2018-12-16T14:43:09.631Z,64.90
2018-12-16T14:45:40.855Z,65.57
2018-12-16T14:48:17.548Z,66.22
2018-12-16T14:50:53.915Z,65.11
2018-12-16T14:53:37.958Z,65.36
2018-12-16T14:56:09.969Z,64.77
2018-12-16T14:58:41.896Z,65.25
2018-12-16T15:01:31.988Z,64.99
2018-12-16T15:04:12.117Z,64.90
2018-12-16T15:06:48.104Z,64.80
2018-12-16T15:09:23.586Z,64.34
2018-12-16T15:12:00.094Z,65.17
2018-12-16T15:14:59.643Z,65.08
2018-12-16T15:17:54.487Z,65.04
2018-12-16T15:20:41.073Z,64.35
2018-12-16T15:26:09.658Z,64.59
2018-12-16T15:31:44.419Z,64.32
2018-12-16T15:34:22.276Z,64.58
2018-12-16T15:39:58.641Z,64.59
2018-12-16T15:45:33.502Z,64.33
2018-12-16T15:48:08.236Z,64.92
2018-12-16T15:50:40.603Z,65.88
2018-12-16T15:53:25.529Z,65.73
2018-12-16T15:55:56.308Z,65.99
2018-12-16T15:58:25.349Z,65.14
2018-12-16T16:00:54.726Z,65.51
2018-12-16T16:03:23.537Z,65.48
2018-12-16T16:05:52.667Z,64.65
2018-12-16T16:08:21.421Z,64.63
2018-12-16T16:10:52.680Z,65.46
2018-12-16T16:13:22.054Z,64.82
2018-12-16T16:15:51.165Z,64.52
2018-12-16T16:18:20.211Z,64.86
2018-12-16T16:20:48.634Z,64.92
2018-12-16T16:23:16.822Z,64.88
2018-12-16T16:25:46.654Z,64.02
2018-12-16T16:28:16.996Z,65.14
2018-12-16T16:30:46.655Z,64.83
2018-12-16T16:33:16.800Z,64.89
2018-12-16T16:35:48.817Z,65.00
2018-12-16T16:38:37.116Z,64.41
2018-12-16T16:41:07.603Z,64.60
2018-12-16T16:46:26.803Z,63.52
2018-12-16T16:48:56.733Z,63.36
2018-12-16T16:51:25.282Z,63.69
2018-12-16T16:53:53.696Z,63.66
2018-12-16T16:56:23.757Z,63.71
2018-12-16T16:58:54.745Z,64.66
2018-12-16T17:01:25.965Z,64.11
2018-12-16T17:03:56.214Z,64.22
2018-12-16T17:06:31.923Z,63.29
2018-12-16T17:09:01.072Z,63.61
2018-12-16T17:11:32.131Z,63.96
2018-12-16T17:14:03.861Z,63.63
2018-12-16T17:16:33.394Z,63.94
2018-12-16T17:19:11.304Z,63.82
2018-12-16T17:21:44.460Z,63.89
2018-12-16T17:24:16.956Z,64.74
2018-12-16T17:26:47.361Z,65.02
2018-12-16T17:29:17.955Z,64.38
2018-12-16T17:31:46.911Z,64.56
2018-12-16T17:34:15.130Z,63.71
2018-12-16T17:36:52.402Z,64.13
2018-12-16T17:39:31.879Z,63.80
2018-12-16T17:42:06.798Z,63.40
2018-12-16T17:44:42.331Z,63.77
2018-12-16T17:47:11.870Z,63.62
2018-12-16T17:49:43.429Z,63.69
2018-12-16T17:52:18.587Z,63.92
2018-12-16T17:54:50.095Z,64.35
2018-12-16T17:57:21.598Z,64.09
2018-12-16T17:59:56.649Z,63.78
2018-12-16T18:02:29.862Z,63.69
2018-12-16T18:05:07.722Z,65.15
2018-12-16T18:07:38.495Z,64.07
2018-12-16T18:10:12.207Z,63.78
2018-12-16T18:12:50.500Z,63.65
2018-12-16T18:15:20.076Z,64.08
2018-12-16T18:17:58.363Z,63.93
2018-12-16T18:20:26.728Z,64.37
2018-12-16T18:22:57.336Z,65.46
2018-12-16T18:25:31.505Z,65.96
2018-12-16T18:28:02.614Z,65.37
2018-12-16T18:30:41.415Z,65.35
2018-12-16T18:33:21.227Z,64.77
2018-12-16T18:36:00.376Z,64.77
2018-12-16T18:41:14.145Z,64.01
2018-12-16T18:46:24.432Z,64.65
2018-12-16T18:48:55.468Z,64.24
2018-12-16T18:51:24.176Z,63.79
2018-12-16T18:53:56.018Z,64.11
2018-12-16T18:56:27.513Z,63.81
2018-12-16T18:58:56.375Z,64.12
2018-12-16T19:01:29.567Z,63.81
2018-12-16T19:03:59.886Z,63.69
2018-12-16T19:06:48.932Z,64.00
2018-12-16T19:09:19.358Z,64.15
2018-12-16T19:11:49.441Z,64.38
2018-12-16T19:17:24.615Z,63.63
2018-12-16T19:20:00.964Z,64.21
2018-12-16T19:22:35.387Z,64.08
2018-12-16T19:28:06.794Z,64.24
2018-12-16T19:30:53.623Z,64.42
2018-12-16T19:33:27.018Z,64.44
2018-12-16T19:36:00.054Z,64.69
2018-12-16T19:38:36.570Z,64.71
2018-12-16T19:41:17.675Z,64.33
2018-12-16T19:43:56.862Z,64.67
2018-12-16T19:46:37.567Z,64.35
2018-12-16T19:49:08.322Z,64.64
2018-12-16T19:51:41.221Z,64.15
2018-12-16T19:54:19.309Z,64.27
2018-12-16T19:58:48.636Z,64.38
2018-12-16T20:01:24.486Z,65.22
2018-12-16T20:03:58.666Z,64.50
2018-12-16T20:06:36.443Z,64.21
2018-12-16T20:09:12.391Z,64.51
2018-12-16T20:11:42.316Z,65.06
2018-12-16T20:14:16.842Z,65.32
2018-12-16T20:16:47.247Z,65.15
2018-12-16T20:19:21.514Z,65.54
2018-12-16T20:21:52.708Z,65.35
2018-12-16T20:24:24.065Z,65.85
2018-12-16T20:26:55.341Z,65.61
2018-12-16T20:29:39.313Z,65.48
2018-12-16T20:32:14.433Z,65.58
2018-12-16T20:35:04.029Z,65.52
2018-12-16T20:37:39.568Z,65.43
2018-12-16T20:40:11.475Z,65.33
2018-12-16T20:42:41.292Z,65.54
2018-12-16T20:45:20.733Z,65.42
2018-12-16T20:47:50.756Z,65.46
2018-12-16T20:50:20.580Z,65.10
2018-12-16T20:52:50.083Z,65.12
2018-12-16T20:55:18.871Z,64.94
2018-12-16T20:57:54.271Z,65.72
2018-12-16T21:00:24.430Z,64.88
2018-12-16T21:02:53.206Z,65.10
2018-12-16T21:05:24.375Z,64.78
2018-12-16T21:07:55.734Z,64.98
2018-12-16T21:10:24.039Z,65.96
2018-12-16T21:12:57.788Z,65.44
2018-12-16T21:16:41.102Z,65.26
2018-12-16T21:19:13.811Z,65.94
2018-12-16T21:21:43.369Z,65.27
2018-12-16T21:24:14.690Z,65.29
2018-12-16T21:27:04.409Z,65.12
2018-12-16T21:30:30.814Z,65.37
2018-12-16T21:33:28.528Z,65.73
2018-12-16T21:36:04.589Z,65.83
2018-12-16T21:38:33.222Z,65.93
2018-12-16T21:41:03.114Z,66.16
2018-12-16T21:43:32.716Z,66.35
2018-12-16T21:46:03.796Z,65.63
2018-12-16T21:48:33.681Z,66.26
2018-12-16T21:51:04.954Z,66.64
2018-12-16T21:53:36.101Z,66.48
2018-12-16T21:56:08.285Z,66.46
2018-12-16T21:58:36.592Z,66.62
2018-12-16T22:01:06.623Z,66.14
2018-12-16T22:03:38.537Z,66.68
2018-12-16T22:06:10.217Z,66.28
2018-12-16T22:08:51.256Z,67.25
2018-12-16T22:11:20.922Z,66.73
2018-12-16T22:13:52.224Z,66.68
2018-12-16T22:16:27.903Z,66.52
2018-12-16T22:19:04.343Z,66.98
2018-12-16T22:21:50.796Z,66.63
2018-12-16T22:24:27.823Z,67.03
2018-12-16T22:27:01.849Z,66.78
2018-12-16T22:29:43.849Z,67.80
2018-12-16T22:32:25.758Z,67.33
2018-12-16T22:34:56.478Z,66.59
2018-12-16T22:37:33.346Z,67.18
2018-12-16T22:43:10.583Z,66.14
2018-12-16T22:45:43.136Z,66.83
2018-12-16T22:48:12.996Z,66.74
2018-12-16T22:50:43.641Z,68.17
2018-12-16T22:53:14.506Z,68.69
2018-12-16T22:58:24.427Z,67.69
2018-12-16T23:01:01.430Z,66.88
2018-12-16T23:06:18.152Z,67.44
2018-12-16T23:08:54.978Z,67.02
2018-12-16T23:11:40.350Z,67.41
2018-12-16T23:14:13.355Z,67.17
2018-12-16T23:16:47.085Z,68.66
2018-12-16T23:19:18.686Z,68.01
2018-12-16T23:22:02.454Z,67.95
2018-12-16T23:24:34.802Z,67.95
2018-12-16T23:27:10.146Z,67.52
2018-12-16T23:29:45.624Z,67.59
2018-12-16T23:32:17.135Z,67.76
2018-12-16T23:34:50.784Z,67.90
2018-12-16T23:37:21.990Z,68.46
2018-12-16T23:40:00.944Z,70.48
2018-12-16T23:42:36.816Z,69.60
2018-12-16T23:45:18.023Z,69.47
2018-12-16T23:47:52.544Z,69.99
2018-12-16T23:50:25.741Z,69.85
2018-12-16T23:52:56.921Z,69.69
2018-12-16T23:55:27.593Z,70.18
2018-12-16T23:58:03.383Z,69.10
